2°C Temp
0°C Dewpoint
87% Humidity
Temperature
21 KM/H
13 MPH
11 KTS
10°
Due North

Wind Speed
Mostly Cloudy
Conditions
Pressure 1016.92 (hPa) - 30.03 (in)
Visibility 6.2 (mi) - 10.0 (km)

Current Conditions
EKCH
Location 50(km)
Metar :EKCH 040820Z 01011KT 9999 BKN027 02/00 Q1017 NOSIG
Thu 4th March 10:20 am

Airport
  Metar Aviation API Data Provided by https://www.checkwx.com/ PHP scripts by weather34.com ©2021